KBVE

Boothville Airport

Boothville, Louisiana, USA
METAR KBVE 171551Z AUTO 14003KT 10SM CLR 29/22 A3015 RMK AO2 SLP209 T02890222
Observed Flight Rules
Aug-17 @ 15:51 UTC (60 minutes ago) Visual Flight Rules
Wind Visibility Clouds
140° at 3 knots 10 miles
  • Clear skies
Temperatures Readings
Current 29°C / 84°F
Dewpoint 22°C / 72°F
Humidity 66%
Altimeter 30.15" Hg
Pressure 1020.9 hPa
Elevation 1
METAR KBVE 171551Z AUTO 14003KT 10SM CLR 29/22 A3015 RMK AO2 SLP209 T02890222
Observed Flight Rules
Aug-17 @ 15:51 UTC
(60 minutes ago)
VFR
Wind Visibility
140° at 3 knots 10 miles
Clouds
  • Clear skies
Temperature Dewpoint
29°C / 84°F 22°C / 72°F
Humidity Altimeter Pressure
66% 30.15" Hg 1020.9 hPa